createdAt,value
2022-08-26T00:01:52.030Z,68.50
2022-08-26T00:04:20.511Z,68.60
2022-08-26T00:06:48.400Z,68.60
2022-08-26T00:09:18.771Z,68.60
2022-08-26T00:11:47.193Z,68.70
2022-08-26T00:14:15.769Z,68.70
2022-08-26T00:16:47.782Z,68.70
2022-08-26T00:19:16.855Z,68.80
2022-08-26T00:21:44.789Z,68.90
2022-08-26T00:24:13.234Z,68.90
2022-08-26T00:26:42.984Z,69.00
2022-08-26T00:29:10.959Z,69.00
2022-08-26T00:31:38.970Z,69.00
2022-08-26T00:34:09.603Z,69.00
2022-08-26T00:36:39.642Z,69.00
2022-08-26T00:39:08.845Z,69.10
2022-08-26T00:41:37.002Z,69.30
2022-08-26T00:44:06.659Z,69.30
2022-08-26T00:46:36.108Z,69.30
2022-08-26T00:49:12.039Z,69.20
2022-08-26T00:51:43.519Z,69.00
2022-08-26T00:54:12.251Z,69.40
2022-08-26T00:56:44.229Z,69.50
2022-08-26T00:59:17.806Z,69.50
2022-08-26T01:01:46.399Z,69.70
2022-08-26T01:04:16.916Z,69.50
2022-08-26T01:06:45.645Z,69.60
2022-08-26T01:09:13.889Z,69.80
2022-08-26T01:11:42.014Z,69.90
2022-08-26T01:14:11.747Z,70.00
2022-08-26T01:16:42.306Z,69.90
2022-08-26T01:19:16.842Z,69.90
2022-08-26T01:21:48.336Z,69.90
2022-08-26T01:24:17.914Z,70.10
2022-08-26T01:26:46.226Z,69.90
2022-08-26T01:29:16.492Z,70.00
2022-08-26T01:31:46.238Z,70.30
2022-08-26T01:34:18.024Z,70.30
2022-08-26T01:36:51.275Z,70.30
2022-08-26T01:39:21.065Z,70.50
2022-08-26T01:41:51.821Z,70.40
2022-08-26T01:44:23.548Z,70.40
2022-08-26T01:46:52.261Z,70.40
2022-08-26T01:49:21.881Z,70.40
2022-08-26T01:51:51.391Z,70.90
2022-08-26T01:54:23.063Z,71.00
2022-08-26T01:56:51.582Z,70.90
2022-08-26T01:59:21.133Z,71.00
2022-08-26T02:01:49.891Z,71.10
2022-08-26T02:04:23.388Z,71.30
2022-08-26T02:06:52.746Z,71.30
2022-08-26T02:09:23.589Z,71.90
2022-08-26T02:11:53.050Z,72.10
2022-08-26T02:14:22.427Z,71.80
2022-08-26T02:16:52.294Z,71.40
2022-08-26T02:19:22.400Z,71.40
2022-08-26T02:21:52.965Z,71.60
2022-08-26T02:24:22.175Z,71.60
2022-08-26T02:26:53.109Z,71.70
2022-08-26T02:29:23.703Z,72.00
2022-08-26T02:31:51.985Z,72.00
2022-08-26T02:34:21.152Z,72.10
2022-08-26T02:36:49.382Z,71.90
2022-08-26T02:39:21.951Z,71.90
2022-08-26T02:41:50.522Z,72.00
2022-08-26T02:44:20.213Z,71.80
2022-08-26T02:46:48.283Z,71.90
2022-08-26T02:49:16.985Z,71.90
2022-08-26T02:51:45.167Z,71.90
2022-08-26T02:54:13.392Z,71.50
2022-08-26T02:56:41.320Z,71.20
2022-08-26T02:59:12.334Z,71.00
2022-08-26T03:01:42.501Z,70.80
2022-08-26T03:04:11.790Z,70.60
2022-08-26T03:06:41.454Z,70.50
2022-08-26T03:09:09.614Z,70.20
2022-08-26T03:11:37.953Z,70.10
2022-08-26T03:14:05.936Z,70.10
2022-08-26T03:16:34.585Z,69.90
2022-08-26T03:19:04.925Z,69.80
2022-08-26T03:21:34.021Z,69.80
2022-08-26T03:24:04.534Z,69.70
2022-08-26T03:26:32.529Z,69.70
2022-08-26T03:29:18.030Z,69.70
2022-08-26T03:31:47.126Z,69.70
2022-08-26T03:34:17.169Z,69.90
2022-08-26T03:36:45.734Z,70.00
2022-08-26T03:39:14.373Z,70.10
2022-08-26T03:41:44.994Z,70.20
2022-08-26T03:44:13.324Z,70.10
2022-08-26T03:46:41.490Z,70.00
2022-08-26T03:49:11.998Z,70.00
2022-08-26T03:51:45.044Z,70.10
2022-08-26T03:54:13.616Z,70.20
2022-08-26T03:56:41.526Z,70.40
2022-08-26T03:59:09.703Z,70.40
2022-08-26T04:01:37.790Z,70.60
2022-08-26T04:04:06.439Z,70.70
2022-08-26T04:06:35.636Z,70.60
2022-08-26T04:09:06.085Z,70.90
2022-08-26T04:11:35.788Z,70.90
2022-08-26T04:14:08.683Z,70.90
2022-08-26T04:16:36.717Z,70.70
2022-08-26T04:19:04.856Z,70.60
2022-08-26T04:21:32.908Z,70.50
2022-08-26T04:24:03.648Z,70.40
2022-08-26T04:26:37.115Z,70.30
2022-08-26T04:29:09.675Z,70.20
2022-08-26T04:31:38.550Z,70.00
2022-08-26T04:34:07.128Z,69.70
2022-08-26T04:36:35.037Z,69.60
2022-08-26T04:39:04.753Z,69.40
2022-08-26T04:41:34.423Z,69.20
2022-08-26T04:44:06.410Z,69.10
2022-08-26T04:46:34.455Z,68.90
2022-08-26T04:49:03.408Z,68.80
2022-08-26T04:51:33.215Z,68.70
2022-08-26T04:54:01.177Z,68.50
2022-08-26T04:56:30.953Z,68.60
2022-08-26T04:59:00.287Z,68.60
2022-08-26T05:01:28.353Z,68.70
2022-08-26T05:03:57.132Z,68.40
2022-08-26T05:06:26.303Z,68.50
2022-08-26T05:08:54.546Z,68.50
2022-08-26T05:11:22.670Z,68.60
2022-08-26T05:13:50.585Z,68.70
2022-08-26T05:16:19.899Z,68.80
2022-08-26T05:18:48.158Z,68.70
2022-08-26T05:21:20.004Z,68.30
2022-08-26T05:23:48.173Z,68.20
2022-08-26T05:26:17.500Z,68.10
2022-08-26T05:28:51.345Z,67.90
2022-08-26T05:31:25.579Z,67.60
2022-08-26T05:33:53.609Z,67.20
2022-08-26T05:36:23.204Z,67.00
2022-08-26T05:38:55.209Z,66.80
2022-08-26T05:41:24.875Z,66.70
2022-08-26T05:43:53.104Z,66.60
2022-08-26T05:46:21.125Z,66.30
2022-08-26T05:48:51.650Z,66.00
2022-08-26T05:51:25.754Z,65.90
2022-08-26T05:53:54.754Z,65.90
2022-08-26T05:56:24.828Z,66.00
2022-08-26T05:58:52.906Z,65.90
2022-08-26T06:01:21.702Z,66.00
2022-08-26T06:03:54.732Z,66.00
2022-08-26T06:06:27.439Z,66.10
2022-08-26T06:08:57.399Z,66.20
2022-08-26T06:11:26.361Z,66.10
2022-08-26T06:13:54.378Z,66.20
2022-08-26T06:16:23.595Z,66.20
2022-08-26T06:18:53.955Z,66.20
2022-08-26T06:21:23.517Z,66.10
2022-08-26T06:24:11.156Z,66.10
2022-08-26T06:26:40.505Z,66.30
2022-08-26T06:29:11.030Z,66.30
2022-08-26T06:31:44.738Z,66.30
2022-08-26T06:34:14.072Z,66.10
2022-08-26T06:36:43.984Z,66.00
2022-08-26T06:39:13.134Z,65.90
2022-08-26T06:41:43.651Z,65.80
2022-08-26T06:44:17.979Z,65.70
2022-08-26T06:46:46.631Z,65.60
2022-08-26T06:49:25.838Z,65.20
2022-08-26T06:51:56.421Z,65.00
2022-08-26T06:54:24.323Z,64.60
2022-08-26T06:56:52.435Z,63.90
2022-08-26T06:59:21.894Z,62.90
2022-08-26T07:01:50.080Z,61.90
2022-08-26T07:04:22.069Z,60.60
2022-08-26T07:06:53.687Z,59.20
2022-08-26T07:09:22.680Z,58.20
2022-08-26T07:11:55.424Z,57.40
2022-08-26T07:14:28.619Z,56.90
2022-08-26T07:16:57.166Z,56.30
2022-08-26T07:19:30.999Z,56.40
2022-08-26T07:22:04.422Z,55.90
2022-08-26T07:24:32.893Z,55.20
2022-08-26T07:27:07.189Z,54.10
2022-08-26T07:29:37.876Z,52.30
2022-08-26T07:32:06.612Z,51.70
2022-08-26T07:34:34.555Z,50.00
2022-08-26T07:37:03.877Z,49.10
2022-08-26T07:39:32.916Z,48.80
2022-08-26T07:42:01.320Z,48.60
2022-08-26T07:44:29.732Z,48.20
2022-08-26T07:46:57.731Z,48.30
2022-08-26T07:49:26.975Z,48.20
2022-08-26T07:51:56.744Z,47.60
2022-08-26T07:54:27.261Z,47.80
2022-08-26T07:56:55.942Z,47.90
2022-08-26T07:59:24.253Z,47.80
2022-08-26T08:01:52.824Z,47.60
2022-08-26T08:04:26.208Z,48.10
2022-08-26T08:06:55.001Z,48.30
2022-08-26T08:09:23.170Z,47.20
2022-08-26T08:11:54.748Z,45.60
2022-08-26T08:14:22.746Z,46.00
2022-08-26T08:16:54.862Z,47.00
2022-08-26T08:19:23.809Z,47.50
2022-08-26T08:21:52.420Z,48.50
2022-08-26T08:24:20.610Z,49.80
2022-08-26T08:26:48.932Z,49.40
2022-08-26T08:29:18.466Z,49.20
2022-08-26T08:31:58.028Z,49.30
2022-08-26T08:34:28.029Z,49.20
2022-08-26T08:36:57.186Z,48.50
2022-08-26T08:39:26.331Z,48.20
2022-08-26T08:42:05.984Z,47.00
2022-08-26T08:44:38.603Z,46.50
2022-08-26T08:47:10.461Z,46.00
2022-08-26T08:49:38.703Z,44.60
2022-08-26T08:52:09.631Z,43.80
2022-08-26T08:54:39.422Z,43.20
2022-08-26T08:57:12.634Z,42.90
2022-08-26T08:59:43.784Z,43.30
2022-08-26T09:02:20.014Z,43.00
2022-08-26T09:04:53.927Z,43.50
2022-08-26T09:07:24.231Z,43.70
2022-08-26T09:09:54.189Z,44.20
2022-08-26T09:12:29.455Z,44.80
2022-08-26T09:15:01.872Z,45.70
2022-08-26T09:17:34.654Z,47.10
2022-08-26T09:20:07.121Z,49.00
2022-08-26T09:22:37.892Z,49.70
2022-08-26T09:25:08.437Z,49.90
2022-08-26T09:27:40.415Z,50.30
2022-08-26T09:30:11.708Z,49.50
2022-08-26T09:32:40.030Z,49.50
2022-08-26T09:35:09.419Z,49.70
2022-08-26T09:37:39.125Z,49.50
2022-08-26T09:40:27.878Z,49.20
2022-08-26T09:43:14.067Z,49.70
2022-08-26T09:45:50.085Z,50.80
2022-08-26T09:48:26.765Z,51.60
2022-08-26T09:50:55.887Z,52.90
2022-08-26T09:53:30.358Z,53.30
2022-08-26T09:56:13.036Z,54.30
2022-08-26T09:58:42.444Z,55.00
2022-08-26T10:01:16.608Z,55.80
2022-08-26T10:03:47.462Z,55.80
2022-08-26T10:06:26.563Z,56.50
2022-08-26T10:08:56.741Z,57.40
2022-08-26T10:11:27.349Z,58.20
2022-08-26T10:13:57.933Z,58.60
2022-08-26T10:16:29.669Z,59.10
2022-08-26T10:19:00.635Z,60.00
2022-08-26T10:21:30.090Z,60.90
2022-08-26T10:24:00.728Z,61.70
2022-08-26T10:26:35.525Z,61.40
2022-08-26T10:29:11.061Z,60.50
2022-08-26T10:31:43.369Z,60.60
2022-08-26T10:34:12.512Z,61.10
2022-08-26T10:37:14.917Z,61.60
2022-08-26T10:39:42.732Z,62.30
2022-08-26T10:42:15.531Z,62.60
2022-08-26T10:44:44.526Z,62.90
2022-08-26T10:47:19.941Z,62.60
2022-08-26T10:49:48.342Z,62.70
2022-08-26T10:52:21.653Z,62.60
2022-08-26T10:54:53.808Z,62.30
2022-08-26T10:57:26.241Z,61.90
2022-08-26T11:00:00.586Z,61.30
2022-08-26T11:02:33.652Z,60.90
2022-08-26T11:05:03.418Z,60.60
2022-08-26T11:07:36.209Z,60.30
2022-08-26T11:10:06.849Z,59.40
2022-08-26T11:12:51.941Z,59.20
2022-08-26T11:15:39.970Z,59.00
2022-08-26T11:18:29.192Z,58.40
2022-08-26T11:20:57.127Z,58.30
2022-08-26T11:23:43.026Z,58.20
2022-08-26T11:26:35.766Z,57.80
2022-08-26T11:29:03.145Z,57.50
2022-08-26T11:31:49.334Z,57.00
2022-08-26T11:34:38.625Z,57.00
2022-08-26T11:37:13.507Z,57.20
2022-08-26T11:39:53.992Z,57.20
2022-08-26T11:42:31.038Z,56.90
2022-08-26T11:44:59.870Z,56.70
2022-08-26T11:47:31.621Z,56.30
2022-08-26T11:50:12.594Z,55.80
2022-08-26T11:52:41.427Z,55.00
2022-08-26T11:55:11.214Z,53.90
2022-08-26T11:57:43.245Z,53.30
2022-08-26T12:00:13.522Z,52.10
2022-08-26T12:02:43.336Z,50.90
2022-08-26T12:05:17.187Z,50.20
2022-08-26T12:07:49.953Z,49.70
2022-08-26T12:10:29.494Z,49.40
2022-08-26T12:12:59.300Z,48.90
2022-08-26T12:15:27.816Z,48.60
2022-08-26T12:17:58.069Z,47.90
2022-08-26T12:20:45.938Z,47.90
2022-08-26T12:23:24.331Z,47.10
2022-08-26T12:25:53.102Z,46.80
2022-08-26T12:28:21.538Z,46.40
2022-08-26T12:31:01.691Z,46.20
2022-08-26T12:33:29.938Z,45.70
2022-08-26T12:36:00.662Z,45.60
2022-08-26T12:38:29.206Z,45.40
2022-08-26T12:40:57.567Z,45.00
2022-08-26T12:43:39.942Z,44.80
2022-08-26T12:46:08.805Z,44.50
2022-08-26T12:48:38.471Z,42.50
2022-08-26T12:51:14.035Z,40.10
2022-08-26T12:53:42.761Z,37.00
2022-08-26T12:56:20.470Z,35.90
2022-08-26T12:59:00.909Z,34.50
2022-08-26T13:01:30.073Z,32.30
2022-08-26T13:03:58.063Z,32.40
2022-08-26T13:06:29.793Z,32.00
2022-08-26T13:08:58.869Z,32.20
2022-08-26T13:11:27.959Z,32.80
2022-08-26T13:13:57.858Z,33.60
2022-08-26T13:16:26.096Z,34.30
2022-08-26T13:18:55.301Z,35.00
2022-08-26T13:21:24.105Z,35.20
2022-08-26T13:23:53.785Z,35.50
2022-08-26T13:26:22.051Z,35.60
2022-08-26T13:29:01.381Z,35.90
2022-08-26T13:31:31.508Z,35.70
2022-08-26T13:33:59.496Z,35.50
2022-08-26T13:36:27.482Z,35.60
2022-08-26T13:38:56.720Z,36.00
2022-08-26T13:41:29.243Z,36.10
2022-08-26T13:43:58.797Z,35.90
2022-08-26T13:46:27.669Z,36.00
2022-08-26T13:48:55.641Z,37.70
2022-08-26T13:51:26.078Z,37.90
2022-08-26T13:53:54.227Z,38.30
2022-08-26T13:56:23.746Z,38.40
2022-08-26T13:58:51.601Z,38.70
2022-08-26T14:01:19.519Z,39.80
2022-08-26T14:03:47.534Z,39.50
2022-08-26T14:06:15.497Z,39.10
2022-08-26T14:08:43.620Z,39.60
2022-08-26T14:11:11.746Z,40.70
2022-08-26T14:13:40.947Z,41.30
2022-08-26T14:16:10.040Z,41.70
2022-08-26T14:18:41.835Z,43.20
2022-08-26T14:21:12.480Z,46.00
2022-08-26T14:23:41.370Z,47.40
2022-08-26T14:26:10.919Z,48.30
2022-08-26T14:28:43.696Z,48.90
2022-08-26T14:31:12.610Z,49.10
2022-08-26T14:33:41.343Z,50.00
2022-08-26T14:36:26.931Z,50.20
2022-08-26T14:38:55.627Z,49.90
2022-08-26T14:41:24.493Z,50.00
2022-08-26T14:43:57.884Z,49.90
2022-08-26T14:46:28.227Z,49.60
2022-08-26T14:48:56.837Z,48.60
2022-08-26T14:51:29.962Z,48.00
2022-08-26T14:54:12.960Z,46.60
2022-08-26T14:56:43.510Z,44.80
2022-08-26T14:59:13.708Z,42.10
2022-08-26T15:01:42.116Z,41.10
2022-08-26T15:04:10.113Z,40.60
2022-08-26T15:06:38.332Z,40.10
2022-08-26T15:09:06.888Z,40.60
2022-08-26T15:11:34.829Z,42.00
2022-08-26T15:14:03.314Z,42.80
2022-08-26T15:16:33.390Z,42.40
2022-08-26T15:19:04.385Z,42.70
2022-08-26T15:21:32.683Z,43.10
2022-08-26T15:24:00.846Z,43.80
2022-08-26T15:26:30.085Z,43.30
2022-08-26T15:29:00.845Z,43.00
2022-08-26T15:31:34.618Z,43.60
2022-08-26T15:34:04.039Z,44.60
2022-08-26T15:36:32.618Z,45.60
2022-08-26T15:39:01.262Z,45.80
2022-08-26T15:41:29.633Z,46.40
2022-08-26T15:43:57.956Z,47.20
2022-08-26T15:46:25.870Z,46.80
2022-08-26T15:48:55.410Z,46.70
2022-08-26T15:51:24.318Z,47.60
2022-08-26T15:53:52.616Z,48.20
2022-08-26T15:56:20.682Z,47.30
2022-08-26T15:58:48.961Z,48.10
2022-08-26T16:01:17.541Z,48.40
2022-08-26T16:03:57.180Z,48.70
2022-08-26T16:06:27.358Z,49.30
2022-08-26T16:08:55.462Z,49.50
2022-08-26T16:11:23.574Z,49.40
2022-08-26T16:13:51.584Z,50.10
2022-08-26T16:16:20.539Z,50.50
2022-08-26T16:18:48.547Z,51.00
2022-08-26T16:21:19.586Z,51.30
2022-08-26T16:23:48.318Z,52.70
2022-08-26T16:26:17.936Z,53.10
2022-08-26T16:28:45.912Z,54.00
2022-08-26T16:31:14.271Z,55.00
2022-08-26T16:33:42.451Z,56.00
2022-08-26T16:36:10.940Z,56.90
2022-08-26T16:38:40.392Z,57.30
2022-08-26T16:41:08.610Z,57.60
2022-08-26T16:43:36.655Z,58.00
2022-08-26T16:46:06.398Z,58.10
2022-08-26T16:48:34.548Z,58.50
2022-08-26T16:51:03.305Z,59.10
2022-08-26T16:53:34.619Z,59.30
2022-08-26T16:56:04.068Z,59.50
2022-08-26T16:58:32.050Z,60.00
2022-08-26T17:01:01.240Z,60.10
2022-08-26T17:03:29.236Z,60.70
2022-08-26T17:05:57.160Z,60.90
2022-08-26T17:08:28.569Z,60.70
2022-08-26T17:10:57.125Z,61.00
2022-08-26T17:13:35.348Z,61.20
2022-08-26T17:16:05.072Z,61.30
2022-08-26T17:18:33.374Z,61.80
2022-08-26T17:21:01.961Z,62.40
2022-08-26T17:23:29.947Z,62.70
2022-08-26T17:25:57.920Z,62.90
2022-08-26T17:28:27.206Z,63.30
2022-08-26T17:30:56.376Z,63.50
2022-08-26T17:33:24.611Z,63.70
2022-08-26T17:35:53.956Z,64.00
2022-08-26T17:38:22.165Z,64.30
2022-08-26T17:40:50.214Z,64.40
2022-08-26T17:43:18.360Z,64.50
2022-08-26T17:45:47.736Z,64.60
2022-08-26T17:48:15.855Z,64.80
2022-08-26T17:50:49.294Z,64.90
2022-08-26T17:53:18.720Z,65.10
2022-08-26T17:55:47.385Z,65.20
2022-08-26T17:58:16.627Z,65.30
2022-08-26T18:00:45.093Z,65.60
2022-08-26T18:03:14.729Z,65.50
2022-08-26T18:05:47.159Z,65.80
2022-08-26T18:08:15.301Z,65.80
2022-08-26T18:10:43.780Z,66.00
2022-08-26T18:13:11.728Z,66.10
2022-08-26T18:15:40.385Z,66.20
2022-08-26T18:18:08.724Z,66.40
2022-08-26T18:20:38.519Z,66.50
2022-08-26T18:23:06.531Z,66.50
2022-08-26T18:25:34.519Z,66.60
2022-08-26T18:28:05.871Z,66.60
2022-08-26T18:30:34.396Z,66.80
2022-08-26T18:33:02.477Z,66.60
2022-08-26T18:35:30.730Z,66.80
2022-08-26T18:38:01.841Z,66.80
2022-08-26T18:40:39.444Z,66.90
2022-08-26T18:43:07.444Z,67.00
2022-08-26T18:45:35.564Z,66.90
2022-08-26T18:48:04.300Z,66.90
2022-08-26T18:50:32.209Z,67.10
2022-08-26T18:53:02.435Z,67.20
2022-08-26T18:55:30.486Z,67.30
2022-08-26T18:57:58.449Z,67.30
2022-08-26T19:00:26.552Z,67.40
2022-08-26T19:02:56.105Z,67.30
2022-08-26T19:05:25.474Z,67.50
2022-08-26T19:07:53.380Z,67.50
2022-08-26T19:10:22.689Z,67.50
2022-08-26T19:12:52.101Z,67.60
2022-08-26T19:15:20.196Z,67.60
2022-08-26T19:17:48.152Z,67.70
2022-08-26T19:20:16.727Z,67.80
2022-08-26T19:22:45.935Z,67.80
2022-08-26T19:25:13.995Z,67.90
2022-08-26T19:27:43.342Z,67.80
2022-08-26T19:30:11.387Z,67.90
2022-08-26T19:32:39.416Z,68.00
2022-08-26T19:35:09.400Z,68.00
2022-08-26T19:37:37.325Z,68.20
2022-08-26T19:40:06.356Z,68.10
2022-08-26T19:42:34.436Z,68.20
2022-08-26T19:45:11.063Z,68.10
2022-08-26T19:47:53.453Z,68.10
2022-08-26T19:50:22.035Z,68.10
2022-08-26T19:52:50.003Z,68.10
2022-08-26T19:55:18.595Z,68.30
2022-08-26T19:57:47.034Z,68.30
2022-08-26T20:00:17.882Z,68.40
2022-08-26T20:02:46.046Z,68.50
2022-08-26T20:05:14.965Z,68.50
2022-08-26T20:07:43.074Z,68.60
2022-08-26T20:10:13.572Z,68.60
2022-08-26T20:12:41.834Z,68.70
2022-08-26T20:15:10.967Z,68.60
2022-08-26T20:17:40.769Z,68.70
2022-08-26T20:20:33.518Z,68.80
2022-08-26T20:23:03.504Z,68.70
2022-08-26T20:25:32.489Z,68.80
2022-08-26T20:28:00.725Z,68.90
2022-08-26T20:30:28.981Z,69.00
2022-08-26T20:32:58.280Z,69.00
2022-08-26T20:35:26.244Z,68.90
2022-08-26T20:37:54.140Z,68.90
2022-08-26T20:40:22.618Z,68.90
2022-08-26T20:42:50.594Z,69.00
2022-08-26T20:45:18.589Z,68.90
2022-08-26T20:47:46.565Z,68.90
2022-08-26T20:50:15.815Z,68.80
2022-08-26T20:52:43.836Z,68.90
2022-08-26T20:55:11.911Z,68.90
2022-08-26T20:57:43.198Z,68.80
2022-08-26T21:00:14.103Z,68.90
2022-08-26T21:02:43.187Z,68.80
2022-08-26T21:05:11.915Z,68.90
2022-08-26T21:07:41.324Z,68.80
2022-08-26T21:10:09.995Z,68.90
2022-08-26T21:12:38.045Z,69.00
2022-08-26T21:15:06.161Z,69.00
2022-08-26T21:17:34.444Z,69.10
2022-08-26T21:20:02.407Z,69.20
2022-08-26T21:22:30.560Z,69.10
2022-08-26T21:24:59.802Z,69.20
2022-08-26T21:27:27.965Z,69.20
2022-08-26T21:29:56.065Z,69.30
2022-08-26T21:32:24.144Z,69.30
2022-08-26T21:34:54.985Z,69.50
2022-08-26T21:37:23.407Z,69.70
2022-08-26T21:39:53.574Z,69.70
2022-08-26T21:42:24.155Z,69.80
2022-08-26T21:44:53.422Z,69.70
2022-08-26T21:47:21.989Z,70.10
2022-08-26T21:49:50.299Z,70.20
2022-08-26T21:52:18.488Z,70.50
2022-08-26T21:54:49.406Z,70.40
2022-08-26T21:57:18.307Z,70.40
2022-08-26T21:59:47.654Z,70.70
2022-08-26T22:02:15.750Z,70.60
2022-08-26T22:04:48.565Z,70.70
2022-08-26T22:07:19.061Z,70.60
2022-08-26T22:09:47.263Z,70.80
2022-08-26T22:12:18.045Z,71.00
2022-08-26T22:14:48.091Z,70.90
2022-08-26T22:17:16.919Z,71.10
2022-08-26T22:19:46.337Z,70.90
2022-08-26T22:22:15.013Z,71.10
2022-08-26T22:24:43.893Z,71.10
2022-08-26T22:27:12.896Z,71.20
2022-08-26T22:29:41.143Z,71.20
2022-08-26T22:32:10.802Z,71.20
2022-08-26T22:34:38.737Z,71.20
2022-08-26T22:37:06.714Z,71.10
2022-08-26T22:39:34.744Z,71.00
2022-08-26T22:42:03.908Z,70.80
2022-08-26T22:44:32.042Z,70.80
2022-08-26T22:46:59.998Z,70.80
2022-08-26T22:49:29.559Z,70.70
2022-08-26T22:51:58.228Z,70.70
2022-08-26T22:54:26.107Z,70.50
2022-08-26T22:56:53.980Z,70.50
2022-08-26T22:59:21.906Z,70.60
2022-08-26T23:01:49.809Z,70.70
2022-08-26T23:04:17.836Z,70.80
2022-08-26T23:06:47.341Z,70.60
2022-08-26T23:09:17.859Z,70.80
2022-08-26T23:11:46.842Z,71.00
2022-08-26T23:14:14.736Z,71.00
2022-08-26T23:16:42.978Z,71.10
2022-08-26T23:19:11.519Z,71.10
2022-08-26T23:21:39.773Z,71.20
2022-08-26T23:24:09.465Z,71.30
2022-08-26T23:26:37.899Z,71.30
2022-08-26T23:29:06.406Z,71.20
2022-08-26T23:31:34.432Z,71.60
2022-08-26T23:34:25.327Z,71.60
2022-08-26T23:36:53.810Z,71.60
2022-08-26T23:39:25.347Z,71.80
2022-08-26T23:41:53.289Z,71.90
2022-08-26T23:44:22.332Z,71.90
2022-08-26T23:46:50.366Z,71.90
2022-08-26T23:49:18.430Z,72.00
2022-08-26T23:52:03.864Z,72.00
2022-08-26T23:54:34.338Z,72.10
2022-08-26T23:57:02.258Z,72.20
2022-08-26T23:59:30.197Z,72.30
